Time;durP1;ratioP1;P1;durP2;ratioP2;P2;SDS_P1;SDS_P2;PMS_P1;PMS_P2;Temp;Humidity;BMP_temperature;BMP_pressure;BME280_temperature;BME280_humidity;BME280_pressure;Samples;Min_cycle;Max_cycle;Signal;HPM_P1;HPM_P2
2022/08/13 00:01:16;;;;;;;6.70;3.40;;;;;;;;;;4992833;28;20054;-58
2022/08/13 00:03:45;;;;;;;5.13;2.90;;;;;;;;;;4992350;28;20038;-59
2022/08/13 00:06:12;;;;;;;8.18;3.10;;;;;;;;;;4992284;28;20049;-59
2022/08/13 00:08:39;;;;;;;7.15;3.22;;;;;;;;;;4992432;28;20412;-58
2022/08/13 00:11:07;;;;;;;5.28;3.33;;;;;;;;;;4992505;28;20053;-58
2022/08/13 00:13:33;;;;;;;6.50;3.63;;;;;;;;;;4991808;28;20079;-57
2022/08/13 00:16:00;;;;;;;5.25;3.08;;;;;;;;;;4992198;28;20473;-59
2022/08/13 00:18:29;;;;;;;5.38;3.50;;;;;;;;;;4992337;28;20045;-57
2022/08/13 00:20:56;;;;;;;7.25;3.83;;;;;;;;;;4992050;28;20089;-58
2022/08/13 00:23:23;;;;;;;6.28;3.65;;;;;;;;;;4992195;28;20042;-57
2022/08/13 00:25:54;;;;;;;6.47;3.75;;;;;;;;;;4991930;28;20038;-57
2022/08/13 00:28:21;;;;;;;6.30;3.53;;;;;;;;;;4991676;28;20049;-58
2022/08/13 00:30:48;;;;;;;4.38;3.88;;;;;;;;;;4991999;28;20065;-58
2022/08/13 00:33:18;;;;;;;4.78;3.58;;;;;;;;;;4992335;28;20035;-59
2022/08/13 00:35:47;;;;;;;3.88;3.30;;;;;;;;;;4958355;28;20039;-59
2022/08/13 00:38:24;;;;;;;4.45;3.45;;;;;;;;;;4992002;28;20082;-59
2022/08/13 00:40:54;;;;;;;4.35;3.50;;;;;;;;;;4991900;28;20038;-59
2022/08/13 00:43:20;;;;;;;9.15;3.95;;;;;;;;;;4991573;28;20049;-59
2022/08/13 00:45:46;;;;;;;7.18;3.60;;;;;;;;;;4991929;28;20057;-59
2022/08/13 00:50:58;;;;;;;6.80;3.80;;;;;;;;;;4990912;28;20509;-59
2022/08/13 00:53:26;;;;;;;4.82;3.28;;;;;;;;;;4991974;28;20046;-59
2022/08/13 00:55:55;;;;;;;7.22;3.38;;;;;;;;;;4991854;28;20046;-59
2022/08/13 00:58:23;;;;;;;8.23;3.90;;;;;;;;;;4991374;28;20038;-59
2022/08/13 01:00:50;;;;;;;5.35;3.35;;;;;;;;;;4991640;28;20053;-59
2022/08/13 01:03:17;;;;;;;5.93;3.65;;;;;;;;;;4991803;28;20042;-59
2022/08/13 01:05:44;;;;;;;7.32;3.40;;;;;;;;;;4991214;28;20042;-59
2022/08/13 01:08:11;;;;;;;6.72;3.38;;;;;;;;;;4991266;28;20052;-58
2022/08/13 01:10:38;;;;;;;4.68;3.63;;;;;;;;;;4991676;28;20042;-58
2022/08/13 01:13:09;;;;;;;4.68;3.33;;;;;;;;;;4991270;28;20462;-58
2022/08/13 01:15:35;;;;;;;7.55;3.50;;;;;;;;;;4991471;28;20382;-58
2022/08/13 01:18:02;;;;;;;8.32;3.63;;;;;;;;;;4991530;28;20042;-58
2022/08/13 01:20:28;;;;;;;10.35;3.72;;;;;;;;;;4990622;28;20038;-57
2022/08/13 01:22:55;;;;;;;5.53;3.60;;;;;;;;;;4991450;28;20168;-58
2022/08/13 01:25:21;;;;;;;6.32;3.55;;;;;;;;;;4991017;28;20043;-58
2022/08/13 01:27:51;;;;;;;5.97;3.35;;;;;;;;;;4990904;28;20048;-58
2022/08/13 01:30:19;;;;;;;5.32;3.65;;;;;;;;;;4991374;28;20035;-58
2022/08/13 01:32:45;;;;;;;4.53;3.38;;;;;;;;;;4991339;28;20038;-58
2022/08/13 01:35:13;;;;;;;5.40;4.00;;;;;;;;;;4990893;28;20350;-58
2022/08/13 01:37:39;;;;;;;3.88;3.47;;;;;;;;;;4990883;28;20038;-58
2022/08/13 01:40:06;;;;;;;4.43;3.22;;;;;;;;;;4991215;28;20334;-58
2022/08/13 01:42:43;;;;;;;5.90;3.67;;;;;;;;;;4990582;28;20054;-58
2022/08/13 01:45:10;;;;;;;3.95;3.55;;;;;;;;;;4991185;28;20052;-58
2022/08/13 01:50:30;;;;;;;5.97;3.28;;;;;;;;;;4989899;28;20046;-58
2022/08/13 01:53:07;;;;;;;5.70;3.20;;;;;;;;;;4990672;28;20514;-58
2022/08/13 01:55:38;;;;;;;4.60;3.22;;;;;;;;;;4990094;28;20039;-58
2022/08/13 01:58:17;;;;;;;5.85;3.63;;;;;;;;;;4989935;28;20042;-58
2022/08/13 02:00:44;;;;;;;5.32;3.20;;;;;;;;;;4990446;28;20050;-58
2022/08/13 02:03:11;;;;;;;7.10;3.53;;;;;;;;;;4992356;28;20160;-58
2022/08/13 02:05:38;;;;;;;6.30;3.20;;;;;;;;;;4977120;28;20097;-58
2022/08/13 02:08:05;;;;;;;9.43;3.20;;;;;;;;;;4994611;28;20484;-58
2022/08/13 02:10:31;;;;;;;5.43;3.40;;;;;;;;;;4994342;28;20452;-58
2022/08/13 02:12:57;;;;;;;4.88;3.17;;;;;;;;;;4994793;28;20478;-58
2022/08/13 02:15:23;;;;;;;4.32;3.17;;;;;;;;;;4994752;28;20043;-57
2022/08/13 02:17:49;;;;;;;5.63;3.30;;;;;;;;;;4976906;28;20049;-58
2022/08/13 02:20:17;;;;;;;6.72;3.45;;;;;;;;;;4994293;28;20057;-57
2022/08/13 02:22:45;;;;;;;5.07;3.50;;;;;;;;;;4994675;28;20113;-58
2022/08/13 02:25:12;;;;;;;8.48;3.40;;;;;;;;;;4994211;28;20053;-58
2022/08/13 02:27:40;;;;;;;6.80;3.72;;;;;;;;;;4993976;28;20038;-57
2022/08/13 02:30:07;;;;;;;7.63;3.50;;;;;;;;;;4994585;28;20038;-58
2022/08/13 02:32:35;;;;;;;6.10;3.50;;;;;;;;;;4994217;28;20073;-58
2022/08/13 02:35:01;;;;;;;6.32;3.45;;;;;;;;;;4994109;28;20547;-58
2022/08/13 02:37:28;;;;;;;4.40;3.05;;;;;;;;;;4976507;28;20462;-59
2022/08/13 02:39:54;;;;;;;6.60;3.42;;;;;;;;;;4994265;28;20038;-59
2022/08/13 02:42:22;;;;;;;6.70;3.28;;;;;;;;;;4993530;28;20433;-58
2022/08/13 02:44:49;;;;;;;4.53;3.40;;;;;;;;;;4994276;28;20089;-59
2022/08/13 02:47:19;;;;;;;4.60;3.05;;;;;;;;;;4993903;28;20042;-59
2022/08/13 02:49:51;;;;;;;5.20;3.17;;;;;;;;;;4993317;28;20054;-59
2022/08/13 02:52:19;;;;;;;6.15;3.33;;;;;;;;;;4994102;28;20104;-58
2022/08/13 02:54:46;;;;;;;6.55;3.25;;;;;;;;;;4994095;28;20440;-58
2022/08/13 02:57:12;;;;;;;6.93;3.33;;;;;;;;;;4993336;28;20078;-58
2022/08/13 02:59:40;;;;;;;4.85;3.03;;;;;;;;;;4960065;28;20198;-58
2022/08/13 03:02:07;;;;;;;4.95;3.28;;;;;;;;;;4976235;28;20088;-58
2022/08/13 03:04:33;;;;;;;5.07;3.50;;;;;;;;;;4993552;28;20046;-57
2022/08/13 03:07:00;;;;;;;8.65;3.20;;;;;;;;;;4993523;28;20053;-56
2022/08/13 03:09:25;;;;;;;4.97;2.90;;;;;;;;;;4993724;28;20112;-58
2022/08/13 03:11:52;;;;;;;6.05;3.50;;;;;;;;;;4992851;28;20584;-58
2022/08/13 03:14:18;;;;;;;3.60;2.97;;;;;;;;;;4993079;28;20124;-59
2022/08/13 03:16:44;;;;;;;4.97;3.28;;;;;;;;;;4993567;28;20609;-59
2022/08/13 03:19:10;;;;;;;7.63;3.80;;;;;;;;;;4993099;28;20034;-59
2022/08/13 03:21:38;;;;;;;6.45;3.40;;;;;;;;;;4993560;28;20045;-59
2022/08/13 03:24:05;;;;;;;5.53;3.40;;;;;;;;;;4993526;28;20042;-59
2022/08/13 03:26:31;;;;;;;4.45;3.10;;;;;;;;;;4992955;28;20042;-59
2022/08/13 03:28:58;;;;;;;5.07;3.33;;;;;;;;;;4993246;28;20046;-58
2022/08/13 03:31:24;;;;;;;9.52;3.60;;;;;;;;;;4993393;28;20042;-59
2022/08/13 03:33:52;;;;;;;4.43;3.25;;;;;;;;;;4993004;28;20039;-58
2022/08/13 03:36:20;;;;;;;7.15;3.63;;;;;;;;;;4993171;28;20070;-58
2022/08/13 03:38:46;;;;;;;10.82;3.55;;;;;;;;;;4993077;28;20043;-57
2022/08/13 03:41:14;;;;;;;7.05;3.78;;;;;;;;;;4992877;28;20100;-58
2022/08/13 03:43:42;;;;;;;7.15;3.58;;;;;;;;;;4992724;28;20073;-58
2022/08/13 03:46:09;;;;;;;6.20;3.42;;;;;;;;;;4992968;28;20123;-58
2022/08/13 03:48:35;;;;;;;6.93;3.72;;;;;;;;;;4992076;28;20062;-58
2022/08/13 03:51:01;;;;;;;8.32;3.58;;;;;;;;;;4992931;28;20108;-58
2022/08/13 03:53:28;;;;;;;4.90;3.90;;;;;;;;;;4992916;28;20038;-57
2022/08/13 03:55:58;;;;;;;4.40;3.72;;;;;;;;;;4992211;28;20039;-59
2022/08/13 03:58:24;;;;;;;5.38;3.53;;;;;;;;;;4992917;28;20046;-58
2022/08/13 04:00:50;;;;;;;4.32;3.42;;;;;;;;;;4992740;28;20045;-58
2022/08/13 04:03:30;;;;;;;7.10;3.85;;;;;;;;;;4992534;28;20513;-59
2022/08/13 04:05:59;;;;;;;6.03;3.97;;;;;;;;;;4992718;28;20038;-58
2022/08/13 04:08:29;;;;;;;5.68;3.75;;;;;;;;;;4992654;28;20375;-58
2022/08/13 04:10:56;;;;;;;5.68;3.90;;;;;;;;;;4992202;28;20107;-59
2022/08/13 04:13:24;;;;;;;4.82;3.63;;;;;;;;;;4992565;28;20049;-58
2022/08/13 04:15:51;;;;;;;8.02;3.78;;;;;;;;;;4992663;28;20073;-59
2022/08/13 04:18:17;;;;;;;7.43;3.50;;;;;;;;;;4991929;28;20038;-58
2022/08/13 04:20:52;;;;;;;6.22;4.03;;;;;;;;;;4992343;28;20043;-59
2022/08/13 04:23:19;;;;;;;5.03;3.72;;;;;;;;;;4974980;28;20165;-58
2022/08/13 04:25:46;;;;;;;7.22;3.90;;;;;;;;;;4990959;28;20034;-58
2022/08/13 04:28:13;;;;;;;7.72;4.18;;;;;;;;;;4992152;28;20034;-57
2022/08/13 04:30:41;;;;;;;6.20;3.65;;;;;;;;;;4992130;28;20122;-57
2022/08/13 04:33:16;;;;;;;7.78;3.67;;;;;;;;;;4991954;28;20095;-58
2022/08/13 04:35:44;;;;;;;7.55;3.97;;;;;;;;;;4991971;28;20042;-57
2022/08/13 04:38:11;;;;;;;4.22;3.78;;;;;;;;;;4991665;28;20046;-57
2022/08/13 04:40:38;;;;;;;4.57;3.35;;;;;;;;;;4991544;28;20053;-57
2022/08/13 04:43:05;;;;;;;5.22;3.53;;;;;;;;;;4992002;28;20042;-57
2022/08/13 04:45:32;;;;;;;8.90;3.97;;;;;;;;;;4991910;28;20038;-58
2022/08/13 04:48:00;;;;;;;9.57;3.70;;;;;;;;;;4991102;28;20113;-58
2022/08/13 04:50:26;;;;;;;5.00;3.05;;;;;;;;;;4992016;28;20130;-58
2022/08/13 04:52:53;;;;;;;5.88;3.80;;;;;;;;;;4991697;28;20049;-58
2022/08/13 04:55:19;;;;;;;4.63;3.58;;;;;;;;;;4991378;28;20049;-58
2022/08/13 04:57:45;;;;;;;3.47;2.97;;;;;;;;;;4974115;28;20044;-58
2022/08/13 05:00:11;;;;;;;4.47;3.25;;;;;;;;;;4991629;28;20042;-58
2022/08/13 05:02:39;;;;;;;5.60;3.35;;;;;;;;;;4991381;28;20551;-57
2022/08/13 05:05:05;;;;;;;7.93;3.25;;;;;;;;;;4991727;28;20601;-58
2022/08/13 05:07:31;;;;;;;7.25;3.20;;;;;;;;;;4991287;28;20042;-58
2022/08/13 05:09:57;;;;;;;4.60;3.08;;;;;;;;;;4990935;28;20053;-57
2022/08/13 05:12:23;;;;;;;4.88;2.70;;;;;;;;;;4991164;28;20049;-57
2022/08/13 05:14:49;;;;;;;5.53;2.90;;;;;;;;;;4991684;28;20125;-57
2022/08/13 05:17:15;;;;;;;5.63;3.53;;;;;;;;;;4973517;28;20086;-57
2022/08/13 05:19:42;;;;;;;5.82;3.20;;;;;;;;;;4991409;28;20042;-57
2022/08/13 05:22:08;;;;;;;6.03;2.97;;;;;;;;;;4991349;28;20153;-58
2022/08/13 05:24:37;;;;;;;7.60;3.28;;;;;;;;;;4991000;28;20097;-57
2022/08/13 05:27:03;;;;;;;4.57;3.30;;;;;;;;;;4990912;28;20370;-56
2022/08/13 05:29:30;;;;;;;5.55;3.20;;;;;;;;;;4991337;28;20047;-58
2022/08/13 05:31:56;;;;;;;3.72;2.53;;;;;;;;;;4990920;28;20038;-58
2022/08/13 05:34:28;;;;;;;7.70;2.92;;;;;;;;;;4991402;28;20038;-58
2022/08/13 05:36:57;;;;;;;6.00;3.30;;;;;;;;;;4990956;28;20433;-58
2022/08/13 05:39:23;;;;;;;4.40;3.03;;;;;;;;;;4994965;28;20397;-58
2022/08/13 05:41:49;;;;;;;4.63;3.10;;;;;;;;;;4995326;28;20104;-58
2022/08/13 05:44:15;;;;;;;5.38;2.75;;;;;;;;;;4995422;28;20557;-58
2022/08/13 05:46:41;;;;;;;6.72;3.13;;;;;;;;;;4994520;28;20116;-58
2022/08/13 05:49:08;;;;;;;7.13;3.17;;;;;;;;;;4994886;28;20513;-58
2022/08/13 05:51:34;;;;;;;5.15;2.90;;;;;;;;;;4995077;28;20046;-58
2022/08/13 05:54:01;;;;;;;3.92;2.70;;;;;;;;;;4994630;28;20567;-58
2022/08/13 05:56:28;;;;;;;6.70;3.33;;;;;;;;;;4995202;28;20050;-56
2022/08/13 05:58:55;;;;;;;5.05;2.90;;;;;;;;;;4994944;28;20081;-57
2022/08/13 06:04:10;;;;;;;5.57;2.60;;;;;;;;;;4995017;28;20362;-58
2022/08/13 06:06:36;;;;;;;6.75;2.67;;;;;;;;;;4994775;28;20070;-58
2022/08/13 06:09:06;;;;;;;5.38;2.60;;;;;;;;;;4994423;28;20061;-57
2022/08/13 06:11:32;;;;;;;9.10;3.38;;;;;;;;;;4994643;28;20115;-57
2022/08/13 06:13:58;;;;;;;4.53;2.67;;;;;;;;;;4994706;28;20042;-56
2022/08/13 06:16:28;;;;;;;13.65;3.45;;;;;;;;;;4994149;28;20053;-57
2022/08/13 06:18:57;;;;;;;5.35;2.53;;;;;;;;;;4994665;28;20077;-58
2022/08/13 06:21:24;;;;;;;3.65;2.45;;;;;;;;;;4994538;28;20054;-58
2022/08/13 06:23:50;;;;;;;3.67;3.08;;;;;;;;;;4994156;28;20050;-58
2022/08/13 06:26:17;;;;;;;6.25;2.60;;;;;;;;;;4994505;28;20042;-58
2022/08/13 06:28:45;;;;;;;4.22;2.42;;;;;;;;;;4994214;28;20051;-58
2022/08/13 06:31:16;;;;;;;4.97;2.75;;;;;;;;;;4994033;28;20038;-58
2022/08/13 06:33:43;;;;;;;3.45;2.67;;;;;;;;;;4994102;28;20074;-58
2022/08/13 06:36:13;;;;;;;5.05;2.40;;;;;;;;;;4994351;28;20632;-58
2022/08/13 06:38:42;;;;;;;3.95;2.60;;;;;;;;;;4993693;28;20400;-58
2022/08/13 06:41:09;;;;;;;6.10;2.70;;;;;;;;;;4994175;28;20092;-58
2022/08/13 06:43:40;;;;;;;5.68;2.60;;;;;;;;;;4994203;28;20054;-58
2022/08/13 06:46:07;;;;;;;5.60;2.70;;;;;;;;;;4993782;28;20064;-58
2022/08/13 06:48:33;;;;;;;3.28;2.15;;;;;;;;;;4993254;28;20062;-57
2022/08/13 06:51:00;;;;;;;7.07;2.17;;;;;;;;;;4993406;28;20089;-58
2022/08/13 06:53:26;;;;;;;6.00;2.28;;;;;;;;;;4993397;28;20050;-58
2022/08/13 06:55:53;;;;;;;3.45;2.10;;;;;;;;;;4993984;28;20078;-58
2022/08/13 06:58:25;;;;;;;5.13;2.22;;;;;;;;;;4993636;28;20049;-57
2022/08/13 07:00:53;;;;;;;2.28;2.08;;;;;;;;;;4993424;28;20045;-57
2022/08/13 07:03:19;;;;;;;6.53;2.85;;;;;;;;;;4993827;28;20042;-58
2022/08/13 07:05:46;;;;;;;2.92;2.28;;;;;;;;;;4993845;28;20038;-57
2022/08/13 07:08:12;;;;;;;5.57;2.20;;;;;;;;;;4993140;28;20110;-58
2022/08/13 07:10:43;;;;;;;3.15;2.00;;;;;;;;;;4993780;28;20030;-58
2022/08/13 07:13:10;;;;;;;4.15;2.05;;;;;;;;;;4993726;28;20058;-58
2022/08/13 07:15:40;;;;;;;5.50;2.10;;;;;;;;;;4975770;28;20454;-58
2022/08/13 07:18:06;;;;;;;3.55;1.73;;;;;;;;;;4993580;28;20097;-58
2022/08/13 07:20:33;;;;;;;4.35;2.00;;;;;;;;;;4993566;28;20482;-58
2022/08/13 07:22:59;;;;;;;3.05;1.98;;;;;;;;;;4993088;28;20053;-58
2022/08/13 07:25:27;;;;;;;3.28;1.77;;;;;;;;;;4993410;28;20042;-58
2022/08/13 07:27:54;;;;;;;3.92;2.08;;;;;;;;;;4992688;28;20121;-58
2022/08/13 07:30:21;;;;;;;3.78;1.63;;;;;;;;;;4992336;28;20042;-58
2022/08/13 07:32:47;;;;;;;6.80;1.92;;;;;;;;;;4992883;28;20038;-58
2022/08/13 07:35:13;;;;;;;2.97;1.60;;;;;;;;;;4992490;28;20596;-57
2022/08/13 07:37:39;;;;;;;3.85;1.67;;;;;;;;;;4991683;28;20125;-57
2022/08/13 07:40:08;;;;;;;4.32;1.65;;;;;;;;;;4992344;28;20038;-58
2022/08/13 07:42:38;;;;;;;2.63;2.08;;;;;;;;;;4992775;28;20069;-58
2022/08/13 07:45:05;;;;;;;5.05;1.85;;;;;;;;;;4992308;28;20046;-58
2022/08/13 07:47:31;;;;;;;3.88;1.60;;;;;;;;;;4992886;28;20114;-58
2022/08/13 07:50:01;;;;;;;6.80;1.55;;;;;;;;;;4992650;28;20062;-58
2022/08/13 07:52:28;;;;;;;5.75;1.77;;;;;;;;;;4992671;28;20046;-58
2022/08/13 07:54:55;;;;;;;3.15;1.73;;;;;;;;;;4975486;28;20034;-58
2022/08/13 07:57:25;;;;;;;4.22;1.70;;;;;;;;;;4992412;28;20069;-58
2022/08/13 07:59:51;;;;;;;3.70;1.60;;;;;;;;;;4992082;28;20044;-58
2022/08/13 08:02:18;;;;;;;5.05;1.52;;;;;;;;;;4992664;28;20123;-58
2022/08/13 08:04:44;;;;;;;4.70;1.58;;;;;;;;;;4992683;28;20053;-58
2022/08/13 08:07:14;;;;;;;3.92;1.70;;;;;;;;;;4992115;28;20086;-58
2022/08/13 08:09:40;;;;;;;1.90;1.60;;;;;;;;;;4974710;28;20050;-58
2022/08/13 08:14:51;;;;;;;3.00;1.50;;;;;;;;;;4991637;28;20101;-58
2022/08/13 08:17:18;;;;;;;2.78;1.52;;;;;;;;;;4992611;28;20039;-58
2022/08/13 08:19:50;;;;;;;1.63;1.52;;;;;;;;;;4992443;28;20050;-58
2022/08/13 08:22:17;;;;;;;5.40;1.67;;;;;;;;;;4992182;28;20050;-58
2022/08/13 08:24:48;;;;;;;5.00;1.50;;;;;;;;;;4992422;28;20050;-58
2022/08/13 08:27:16;;;;;;;6.03;1.60;;;;;;;;;;4992335;28;20141;-58
2022/08/13 08:29:44;;;;;;;2.25;1.10;;;;;;;;;;4991921;28;20096;-57
2022/08/13 08:32:11;;;;;;;5.45;1.60;;;;;;;;;;4992225;28;20042;-58
2022/08/13 08:34:42;;;;;;;4.45;1.60;;;;;;;;;;4992236;28;20734;-58
2022/08/13 08:42:48;;;;;;;3.22;1.45;;;;;;;;;;4991556;28;20510;-58
2022/08/13 08:45:18;;;;;;;4.57;1.48;;;;;;;;;;4991689;28;20046;-58
2022/08/13 08:47:44;;;;;;;2.60;1.50;;;;;;;;;;4991535;28;20046;-57
2022/08/13 08:50:11;;;;;;;3.53;1.45;;;;;;;;;;4991506;28;20092;-58
2022/08/13 08:55:24;;;;;;;1.35;1.25;;;;;;;;;;4991885;28;20046;-58
2022/08/13 08:57:52;;;;;;;2.45;1.40;;;;;;;;;;4991447;28;20505;-57
2022/08/13 09:00:19;;;;;;;5.25;1.55;;;;;;;;;;4991786;28;20042;-57
2022/08/13 09:02:48;;;;;;;2.55;1.55;;;;;;;;;;4991835;28;20042;-58
2022/08/13 09:05:16;;;;;;;2.33;1.60;;;;;;;;;;4991343;28;20125;-58
2022/08/13 09:07:45;;;;;;;3.72;1.30;;;;;;;;;;4991317;28;20046;-59
2022/08/13 09:10:11;;;;;;;4.72;1.35;;;;;;;;;;4991499;28;20138;-58
2022/08/13 09:12:40;;;;;;;2.03;1.30;;;;;;;;;;4990399;28;20050;-58
2022/08/13 09:15:06;;;;;;;2.33;1.30;;;;;;;;;;4991615;28;20042;-57
2022/08/13 09:17:33;;;;;;;4.40;1.30;;;;;;;;;;4991434;28;20069;-58
2022/08/13 09:19:59;;;;;;;1.92;1.15;;;;;;;;;;4990858;28;20042;-58
2022/08/13 09:22:25;;;;;;;2.20;1.48;;;;;;;;;;4991514;28;20050;-58
2022/08/13 09:24:56;;;;;;;5.97;1.42;;;;;;;;;;4991308;28;20053;-58
2022/08/13 09:27:23;;;;;;;2.60;1.50;;;;;;;;;;4990900;28;20065;-58
2022/08/13 09:29:50;;;;;;;1.48;1.10;;;;;;;;;;4991414;28;20038;-58
2022/08/13 09:32:16;;;;;;;3.88;1.40;;;;;;;;;;4991370;28;20070;-58
2022/08/13 09:34:46;;;;;;;3.40;1.20;;;;;;;;;;4991058;28;20041;-58
2022/08/13 09:37:13;;;;;;;4.03;1.23;;;;;;;;;;4991201;28;20041;-58
2022/08/13 09:39:59;;;;;;;3.33;1.30;;;;;;;;;;4990915;28;20057;-58
2022/08/13 09:42:32;;;;;;;2.60;1.30;;;;;;;;;;4990304;28;20113;-58
2022/08/13 09:44:59;;;;;;;4.18;1.30;;;;;;;;;;4991062;28;20394;-59
2022/08/13 09:47:25;;;;;;;4.25;1.33;;;;;;;;;;4990974;28;20042;-58
2022/08/13 09:49:52;;;;;;;3.50;1.33;;;;;;;;;;4990461;28;20402;-58
2022/08/13 09:52:20;;;;;;;3.15;1.40;;;;;;;;;;4991097;28;20096;-57
2022/08/13 09:54:47;;;;;;;3.97;1.45;;;;;;;;;;4991155;28;20093;-58
2022/08/13 09:57:13;;;;;;;5.65;1.40;;;;;;;;;;4990598;28;20042;-58
2022/08/13 09:59:39;;;;;;;2.92;1.48;;;;;;;;;;4990859;28;20042;-59
2022/08/13 10:02:09;;;;;;;2.67;1.33;;;;;;;;;;4991127;28;20190;-59
2022/08/13 10:04:37;;;;;;;5.07;1.50;;;;;;;;;;4990735;28;20042;-59
2022/08/13 10:07:04;;;;;;;1.40;1.30;;;;;;;;;;4990628;28;20178;-59
2022/08/13 10:09:33;;;;;;;2.70;1.40;;;;;;;;;;4991067;28;20115;-59
2022/08/13 10:12:00;;;;;;;2.97;1.50;;;;;;;;;;4990450;28;20061;-59
2022/08/13 10:14:26;;;;;;;2.92;1.33;;;;;;;;;;4990852;28;20129;-58
2022/08/13 10:16:53;;;;;;;2.60;1.50;;;;;;;;;;4990890;28;20034;-59
2022/08/13 10:19:20;;;;;;;3.33;1.55;;;;;;;;;;4990758;28;20133;-58
2022/08/13 10:21:46;;;;;;;3.75;1.50;;;;;;;;;;4990841;28;20122;-58
2022/08/13 10:24:13;;;;;;;1.40;1.30;;;;;;;;;;4992563;28;20042;-58
2022/08/13 10:26:40;;;;;;;2.03;1.50;;;;;;;;;;4994184;28;20496;-58
2022/08/13 10:29:09;;;;;;;1.20;1.05;;;;;;;;;;4994506;28;20042;-59
2022/08/13 10:31:36;;;;;;;6.05;1.35;;;;;;;;;;4994186;28;20045;-59
2022/08/13 10:34:03;;;;;;;2.08;1.40;;;;;;;;;;4994126;28;20046;-59
2022/08/13 10:36:30;;;;;;;2.47;1.27;;;;;;;;;;4976648;28;20066;-58
2022/08/13 10:38:56;;;;;;;3.33;1.20;;;;;;;;;;4994048;28;20038;-59
2022/08/13 10:41:22;;;;;;;2.15;1.58;;;;;;;;;;4993803;28;20552;-59
2022/08/13 10:43:48;;;;;;;2.33;1.42;;;;;;;;;;4994289;28;20050;-59
2022/08/13 10:46:20;;;;;;;2.65;1.40;;;;;;;;;;4993798;28;20489;-59
2022/08/13 10:48:51;;;;;;;2.95;1.40;;;;;;;;;;4993544;28;20148;-59
2022/08/13 10:51:17;;;;;;;2.22;1.42;;;;;;;;;;4994244;28;20046;-59
2022/08/13 10:53:58;;;;;;;2.58;1.27;;;;;;;;;;4994159;28;20038;-60
2022/08/13 10:56:24;;;;;;;4.00;1.20;;;;;;;;;;4993683;28;20074;-59
2022/08/13 10:58:50;;;;;;;2.58;1.20;;;;;;;;;;4993890;28;20038;-59
2022/08/13 11:01:19;;;;;;;2.97;1.42;;;;;;;;;;4993801;28;20061;-59
2022/08/13 11:03:45;;;;;;;3.70;1.30;;;;;;;;;;4993359;28;20042;-59
2022/08/13 11:06:11;;;;;;;2.22;1.85;;;;;;;;;;4993854;28;20136;-59
2022/08/13 11:08:38;;;;;;;2.72;1.25;;;;;;;;;;4993726;28;20034;-59
2022/08/13 11:11:05;;;;;;;2.72;1.17;;;;;;;;;;4993323;28;20042;-59
2022/08/13 11:13:31;;;;;;;1.77;1.30;;;;;;;;;;4993736;28;20046;-59
2022/08/13 11:15:58;;;;;;;4.20;1.67;;;;;;;;;;4993641;28;20457;-59
2022/08/13 11:18:26;;;;;;;3.33;1.35;;;;;;;;;;4993090;28;20673;-58
2022/08/13 11:21:08;;;;;;;1.88;1.50;;;;;;;;;;4993559;28;20052;-59
2022/08/13 11:23:35;;;;;;;3.38;1.25;;;;;;;;;;4993666;28;20042;-59
2022/08/13 11:26:01;;;;;;;2.25;1.08;;;;;;;;;;4992956;28;20037;-59
2022/08/13 11:28:27;;;;;;;3.67;1.40;;;;;;;;;;4993328;28;20041;-59
2022/08/13 11:30:54;;;;;;;4.50;1.60;;;;;;;;;;4993326;28;20038;-59
2022/08/13 11:33:21;;;;;;;3.75;1.40;;;;;;;;;;4992997;28;20412;-59
2022/08/13 11:35:47;;;;;;;2.55;1.20;;;;;;;;;;4992871;28;20038;-59
2022/08/13 11:38:14;;;;;;;4.13;1.33;;;;;;;;;;4992827;28;20144;-59
2022/08/13 11:40:45;;;;;;;2.45;1.50;;;;;;;;;;4992359;28;20077;-59
2022/08/13 11:43:11;;;;;;;2.33;1.30;;;;;;;;;;4993074;28;20039;-59
2022/08/13 11:45:37;;;;;;;4.20;1.55;;;;;;;;;;4993076;28;20046;-59
2022/08/13 11:48:05;;;;;;;3.10;1.00;;;;;;;;;;4992081;28;20090;-59
2022/08/13 11:50:31;;;;;;;4.10;1.40;;;;;;;;;;4993081;28;20567;-59
2022/08/13 11:52:57;;;;;;;1.85;1.45;;;;;;;;;;4992965;28;20038;-59
2022/08/13 11:55:23;;;;;;;2.08;1.20;;;;;;;;;;4992602;28;20496;-59
2022/08/13 11:57:58;;;;;;;2.15;1.23;;;;;;;;;;4992435;28;20129;-59
2022/08/13 12:00:24;;;;;;;1.48;1.27;;;;;;;;;;4992715;28;20108;-59
2022/08/13 12:02:50;;;;;;;1.67;1.00;;;;;;;;;;4992392;28;20480;-59
2022/08/13 12:05:16;;;;;;;3.13;1.40;;;;;;;;;;4992860;28;20493;-59
2022/08/13 12:07:42;;;;;;;1.77;1.23;;;;;;;;;;4992144;28;20085;-59
2022/08/13 12:10:08;;;;;;;2.17;1.13;;;;;;;;;;4991913;28;20046;-59
2022/08/13 12:12:34;;;;;;;2.50;1.30;;;;;;;;;;4992617;28;20464;-59
2022/08/13 12:15:00;;;;;;;2.05;1.00;;;;;;;;;;4992548;28;20129;-59
2022/08/13 12:17:27;;;;;;;4.22;1.25;;;;;;;;;;4992094;28;20125;-59
2022/08/13 12:19:53;;;;;;;2.65;1.13;;;;;;;;;;4992465;28;20440;-60
2022/08/13 12:22:19;;;;;;;2.88;1.27;;;;;;;;;;4992403;28;20045;-59
2022/08/13 12:24:45;;;;;;;3.67;1.52;;;;;;;;;;4992018;28;20046;-60
2022/08/13 12:27:11;;;;;;;2.28;1.15;;;;;;;;;;4992184;28;20042;-59
2022/08/13 12:29:37;;;;;;;3.75;1.52;;;;;;;;;;4991981;28;20078;-59
2022/08/13 12:32:03;;;;;;;1.80;1.10;;;;;;;;;;4991885;28;20042;-60
2022/08/13 12:34:29;;;;;;;14.25;1.85;;;;;;;;;;4991995;28;20533;-60
2022/08/13 12:36:55;;;;;;;2.78;1.20;;;;;;;;;;4992062;28;20177;-59
2022/08/13 12:39:21;;;;;;;1.85;1.30;;;;;;;;;;4991910;28;20046;-59
2022/08/13 12:41:48;;;;;;;2.75;1.23;;;;;;;;;;4991633;28;20490;-59
2022/08/13 12:44:14;;;;;;;2.75;1.27;;;;;;;;;;4974132;28;20045;-59
2022/08/13 12:46:40;;;;;;;3.10;1.23;;;;;;;;;;4991086;28;20061;-60
2022/08/13 12:49:07;;;;;;;1.30;1.20;;;;;;;;;;4990930;28;20064;-58
2022/08/13 12:51:33;;;;;;;1.25;1.10;;;;;;;;;;4991800;28;20050;-59
2022/08/13 12:53:59;;;;;;;3.25;1.25;;;;;;;;;;4991743;28;20496;-58
2022/08/13 12:56:26;;;;;;;1.30;1.10;;;;;;;;;;4991580;28;20082;-57
2022/08/13 12:58:52;;;;;;;1.70;1.05;;;;;;;;;;4991723;28;20045;-59
2022/08/13 13:01:18;;;;;;;2.58;1.33;;;;;;;;;;4991754;28;20541;-59
2022/08/13 13:03:44;;;;;;;2.95;1.40;;;;;;;;;;4991479;28;20134;-59
2022/08/13 13:06:10;;;;;;;2.78;1.20;;;;;;;;;;4991497;28;20128;-59
2022/08/13 13:08:36;;;;;;;5.53;1.30;;;;;;;;;;4991336;28;20045;-59
2022/08/13 13:11:04;;;;;;;1.60;1.30;;;;;;;;;;4990374;28;20038;-59
2022/08/13 13:13:35;;;;;;;2.38;1.20;;;;;;;;;;4990926;28;20038;-59
2022/08/13 13:16:01;;;;;;;1.30;1.15;;;;;;;;;;4991023;28;20532;-59
2022/08/13 13:18:31;;;;;;;1.65;1.23;;;;;;;;;;4990520;28;20038;-59
2022/08/13 13:20:57;;;;;;;1.45;1.30;;;;;;;;;;4990515;28;20046;-59
2022/08/13 13:23:25;;;;;;;2.75;1.30;;;;;;;;;;4990984;28;20046;-58
2022/08/13 13:25:51;;;;;;;5.53;1.30;;;;;;;;;;4990456;28;20031;-59
2022/08/13 13:28:21;;;;;;;4.00;1.17;;;;;;;;;;4990967;28;20061;-59
2022/08/13 13:30:48;;;;;;;2.03;1.35;;;;;;;;;;4991109;28;20050;-59
2022/08/13 13:33:14;;;;;;;2.13;1.25;;;;;;;;;;4990930;28;20038;-59
2022/08/13 13:35:42;;;;;;;5.53;1.65;;;;;;;;;;4991306;28;20050;-59
2022/08/13 13:38:09;;;;;;;2.20;1.17;;;;;;;;;;4990827;28;20049;-59
2022/08/13 13:40:38;;;;;;;1.40;1.20;;;;;;;;;;4990808;28;20085;-58
2022/08/13 13:43:04;;;;;;;1.35;1.00;;;;;;;;;;4991187;28;20485;-59
2022/08/13 13:45:30;;;;;;;1.30;1.15;;;;;;;;;;4991078;28;20482;-59
2022/08/13 13:47:56;;;;;;;3.65;1.63;;;;;;;;;;4990324;28;20406;-59
2022/08/13 13:50:22;;;;;;;1.20;1.10;;;;;;;;;;4991110;28;20050;-59
2022/08/13 13:52:49;;;;;;;2.45;1.40;;;;;;;;;;4991156;28;20050;-59
2022/08/13 13:55:15;;;;;;;3.60;1.20;;;;;;;;;;4990504;28;20054;-59
2022/08/13 13:57:41;;;;;;;2.45;1.48;;;;;;;;;;4991021;28;20042;-59
2022/08/13 14:00:11;;;;;;;2.33;1.20;;;;;;;;;;4994773;28;20124;-59
2022/08/13 14:02:37;;;;;;;4.60;1.30;;;;;;;;;;4994838;28;20093;-59
2022/08/13 14:05:06;;;;;;;1.80;1.25;;;;;;;;;;4994816;28;20041;-58
2022/08/13 14:07:34;;;;;;;2.22;1.42;;;;;;;;;;4994746;28;20701;-59
2022/08/13 14:10:00;;;;;;;2.78;1.20;;;;;;;;;;4994583;28;20469;-59
2022/08/13 14:12:27;;;;;;;2.92;1.20;;;;;;;;;;4994383;28;20125;-59
2022/08/13 14:14:53;;;;;;;3.55;1.27;;;;;;;;;;4994858;28;20096;-59
2022/08/13 14:17:20;;;;;;;1.40;1.30;;;;;;;;;;4993995;28;20042;-59
2022/08/13 14:19:47;;;;;;;2.80;1.42;;;;;;;;;;4994759;28;20117;-59
2022/08/13 14:22:13;;;;;;;2.60;1.50;;;;;;;;;;4994749;28;20046;-59
2022/08/13 14:24:41;;;;;;;1.48;1.38;;;;;;;;;;4994218;28;20137;-59
2022/08/13 14:27:07;;;;;;;1.35;1.25;;;;;;;;;;4994530;28;20043;-59
2022/08/13 14:29:33;;;;;;;3.50;1.65;;;;;;;;;;4994529;28;20038;-59
2022/08/13 14:31:59;;;;;;;2.75;1.35;;;;;;;;;;4994088;28;20298;-59
2022/08/13 14:34:26;;;;;;;2.45;1.58;;;;;;;;;;4994472;28;20481;-59
2022/08/13 14:36:54;;;;;;;4.65;1.20;;;;;;;;;;4976375;28;20038;-59
2022/08/13 14:39:20;;;;;;;2.83;1.60;;;;;;;;;;4993754;28;20125;-59
2022/08/13 14:41:46;;;;;;;2.88;1.40;;;;;;;;;;4994338;28;20121;-59
2022/08/13 14:44:12;;;;;;;3.40;1.42;;;;;;;;;;4993937;28;20454;-59
2022/08/13 14:46:38;;;;;;;2.38;1.15;;;;;;;;;;4976004;28;20133;-59
2022/08/13 14:49:04;;;;;;;2.53;1.70;;;;;;;;;;4993795;28;20145;-59
2022/08/13 14:51:30;;;;;;;1.92;1.30;;;;;;;;;;4994128;28;20131;-59
2022/08/13 14:53:56;;;;;;;4.75;1.80;;;;;;;;;;4993731;28;20089;-59
2022/08/13 14:56:23;;;;;;;2.97;1.50;;;;;;;;;;4994155;28;20045;-59
2022/08/13 14:58:51;;;;;;;4.57;1.40;;;;;;;;;;4993776;28;20089;-59
2022/08/13 15:01:18;;;;;;;1.85;1.30;;;;;;;;;;4993236;28;20039;-59
2022/08/13 15:03:45;;;;;;;1.90;1.40;;;;;;;;;;4994100;28;20038;-59